Terminal Aerodrome Forecast
Issued by NWS

Home | Current Version | Previous Version | Text Only | Print | Product List | Glossary On
Versions: 1 2 3 4 5 6 7 8 9 10 11 12 13 14 15 16 17 18 19 20 21 22 23 24 25 26 27 28 29 30
000
FTPA31 PHFO 021100
TAFJRF
TAF
PHJR 021127Z 0212/0312 VRB04KT P6SM FEW050
     FM022000 13008G15KT P6SM FEW030 SCT050
     FM030400 06006KT P6SM FEW030 SCT050=

USA.gov is the U.S. government's official web portal to all federal, state and local government web resources and services.